Time;durP1;ratioP1;P1;durP2;ratioP2;P2;SDS_P1;SDS_P2;PMS_P1;PMS_P2;Temp;Humidity;BMP_temperature;BMP_pressure;BME280_temperature;BME280_humidity;BME280_pressure;Samples;Min_cycle;Max_cycle;Signal;HPM_P1;HPM_P2
2021/04/13 00:00:26;;;;;;;18.67;15.90;;;4.60;99.90;;;;;;5092941;28;20321;-41
2021/04/13 00:02:55;;;;;;;14.52;13.00;;;4.70;99.90;;;;;;5092785;28;20253;-40
2021/04/13 00:05:32;;;;;;;18.90;16.10;;;4.60;99.90;;;;;;5092682;28;20210;-39
2021/04/13 00:08:01;;;;;;;15.70;13.85;;;4.50;99.90;;;;;;5092598;28;20662;-39
2021/04/13 00:10:32;;;;;;;17.30;13.70;;;4.50;99.90;;;;;;5092726;28;20286;-39
2021/04/13 00:13:00;;;;;;;19.10;15.77;;;4.40;99.90;;;;;;5092511;28;20318;-39
2021/04/13 00:15:29;;;;;;;15.70;14.05;;;4.40;99.90;;;;;;5092565;28;20207;-39
2021/04/13 00:17:58;;;;;;;18.05;14.93;;;4.30;99.90;;;;;;5092458;28;20210;-39
2021/04/13 00:20:33;;;;;;;20.27;16.02;;;4.40;99.90;;;;;;5092330;28;20317;-39
2021/04/13 00:23:01;;;;;;;17.65;14.82;;;4.40;99.90;;;;;;5092640;28;20283;-39
2021/04/13 00:25:31;;;;;;;18.50;14.80;;;4.40;99.90;;;;;;5092260;28;20242;-39
2021/04/13 00:27:58;;;;;;;17.70;15.60;;;4.50;99.90;;;;;;5092605;28;20211;-39
2021/04/13 00:30:29;;;;;;;16.50;13.93;;;4.50;99.90;;;;;;5092028;28;20256;-39
2021/04/13 00:33:01;;;;;;;16.60;14.88;;;4.50;99.90;;;;;;5092219;28;20217;-39
2021/04/13 00:35:31;;;;;;;14.55;13.05;;;4.50;99.90;;;;;;5092098;28;20306;-39
2021/04/13 00:38:16;;;;;;;15.40;13.80;;;4.50;99.90;;;;;;5092325;28;20629;-40
2021/04/13 00:40:46;;;;;;;26.70;20.05;;;4.50;99.90;;;;;;5092078;28;20240;-40
2021/04/13 00:43:17;;;;;;;16.08;14.48;;;4.40;99.90;;;;;;5092603;28;20240;-39
2021/04/13 00:45:46;;;;;;;15.88;14.18;;;4.40;99.90;;;;;;5092058;28;20602;-39
2021/04/13 00:48:22;;;;;;;14.88;13.40;;;4.40;99.90;;;;;;5092151;28;20271;-40
2021/04/13 00:50:52;;;;;;;15.63;14.00;;;4.40;99.90;;;;;;5092121;28;20293;-40
2021/04/13 00:53:24;;;;;;;16.15;13.57;;;4.30;99.90;;;;;;5092063;28;20305;-40
2021/04/13 00:55:55;;;;;;;16.88;14.43;;;4.30;99.90;;;;;;5091942;28;20305;-40
2021/04/13 00:58:26;;;;;;;16.88;13.98;;;4.30;99.90;;;;;;5092223;28;20210;-41
2021/04/13 01:00:55;;;;;;;15.68;13.65;;;4.30;99.90;;;;;;5091866;28;20277;-39
2021/04/13 01:03:24;;;;;;;19.85;15.07;;;4.30;99.90;;;;;;5092019;28;20298;-39
2021/04/13 01:05:57;;;;;;;17.95;14.20;;;4.20;99.90;;;;;;5091851;28;20289;-39
2021/04/13 01:08:35;;;;;;;16.33;14.63;;;4.20;99.90;;;;;;5091939;28;20386;-39
2021/04/13 01:11:14;;;;;;;17.98;14.70;;;4.20;99.90;;;;;;5092039;28;20725;-39
2021/04/13 01:13:48;;;;;;;17.05;14.65;;;4.20;99.90;;;;;;5091730;28;20736;-39
2021/04/13 01:16:18;;;;;;;15.73;14.15;;;4.10;99.90;;;;;;5091833;28;20210;-39
2021/04/13 01:18:51;;;;;;;16.20;14.35;;;4.10;99.90;;;;;;5091686;28;20247;-39
2021/04/13 01:21:31;;;;;;;17.52;15.65;;;4.10;99.90;;;;;;5091747;28;20269;-39
2021/04/13 01:24:07;;;;;;;16.80;14.43;;;4.10;99.90;;;;;;5091948;28;20297;-39
2021/04/13 01:26:35;;;;;;;16.92;14.85;;;4.10;99.90;;;;;;5092009;28;20329;-38
2021/04/13 01:29:04;;;;;;;16.98;15.18;;;4.10;99.90;;;;;;5091833;28;20313;-40
2021/04/13 01:31:48;;;;;;;16.08;14.18;;;4.00;99.90;;;;;;5091881;28;20295;-39
2021/04/13 01:34:22;;;;;;;16.23;14.52;;;4.00;99.90;;;;;;5091999;28;20207;-40
2021/04/13 01:37:04;;;;;;;16.98;15.13;;;4.00;99.90;;;;;;5092145;28;20298;-40
2021/04/13 01:39:35;;;;;;;16.58;14.82;;;4.00;99.90;;;;;;5091697;28;20700;-39
2021/04/13 01:42:03;;;;;;;16.75;14.90;;;3.90;99.90;;;;;;5091967;28;20606;-37
2021/04/13 01:44:36;;;;;;;18.27;15.18;;;3.90;99.90;;;;;;5091929;28;20238;-38
2021/04/13 01:47:05;;;;;;;16.23;13.98;;;3.90;99.90;;;;;;5091767;28;20424;-38
2021/04/13 01:49:40;;;;;;;18.35;15.65;;;3.90;99.90;;;;;;5091748;28;20256;-38
2021/04/13 01:52:12;;;;;;;23.30;19.25;;;4.00;99.90;;;;;;5091817;28;20549;-38
2021/04/13 01:54:40;;;;;;;17.92;16.02;;;4.00;99.90;;;;;;5091527;28;20748;-39
2021/04/13 01:57:16;;;;;;;18.05;16.25;;;4.00;99.90;;;;;;5091914;28;20685;-39
2021/04/13 01:59:50;;;;;;;17.98;15.40;;;4.00;99.90;;;;;;5095384;28;20234;-38
2021/04/13 02:02:22;;;;;;;17.70;14.52;;;4.00;99.90;;;;;;5095280;28;20681;-38
2021/04/13 02:04:56;;;;;;;17.08;15.23;;;4.00;99.90;;;;;;5095139;28;20305;-39
2021/04/13 02:07:39;;;;;;;18.35;16.42;;;4.00;99.90;;;;;;5095133;28;20301;-39
2021/04/13 02:10:18;;;;;;;17.73;15.55;;;3.90;99.90;;;;;;5095264;28;20205;-39
2021/04/13 02:12:49;;;;;;;17.88;16.00;;;3.90;99.90;;;;;;5095064;28;20303;-39
2021/04/13 02:15:27;;;;;;;18.55;15.60;;;4.00;99.90;;;;;;5094913;28;20283;-38
2021/04/13 02:17:58;;;;;;;17.70;15.35;;;4.00;99.90;;;;;;5095166;28;20318;-43
2021/04/13 02:20:30;;;;;;;20.33;16.13;;;3.90;99.90;;;;;;5094958;28;20250;-38
2021/04/13 02:22:58;;;;;;;17.88;16.08;;;3.90;99.90;;;;;;5094817;28;20302;-40
2021/04/13 02:25:28;;;;;;;17.10;15.40;;;3.90;99.90;;;;;;5094393;28;20748;-40
2021/04/13 02:27:58;;;;;;;17.25;15.07;;;3.70;99.90;;;;;;5095053;28;20206;-40
2021/04/13 02:30:32;;;;;;;17.08;15.27;;;3.70;99.90;;;;;;5094674;28;20736;-42
2021/04/13 02:33:05;;;;;;;18.80;16.83;;;3.70;99.90;;;;;;5094727;28;20453;-39
2021/04/13 02:35:37;;;;;;;17.27;15.38;;;3.70;99.90;;;;;;5094781;28;20283;-40
2021/04/13 02:38:07;;;;;;;18.00;15.70;;;3.60;99.90;;;;;;5094534;28;20298;-40
2021/04/13 02:40:40;;;;;;;17.33;15.45;;;3.60;99.90;;;;;;5094453;28;20272;-39
2021/04/13 02:43:11;;;;;;;19.77;15.35;;;3.60;99.90;;;;;;5094490;28;20744;-40
2021/04/13 02:45:43;;;;;;;18.60;15.73;;;3.70;99.90;;;;;;5094583;28;20301;-44
2021/04/13 02:48:13;;;;;;;18.25;16.35;;;3.70;99.90;;;;;;5094465;28;20298;-39
2021/04/13 02:50:46;;;;;;;20.73;16.55;;;3.80;99.90;;;;;;5094319;28;20281;-40
2021/04/13 02:53:17;;;;;;;18.85;16.85;;;3.80;99.90;;;;;;5094492;28;20210;-41
2021/04/13 02:55:50;;;;;;;17.58;15.68;;;3.80;99.90;;;;;;5094422;28;20238;-40
2021/04/13 02:58:20;;;;;;;18.52;16.65;;;3.80;99.90;;;;;;5094111;28;20664;-42
2021/04/13 03:00:51;;;;;;;19.58;16.50;;;3.70;99.90;;;;;;5093893;28;20318;-41
2021/04/13 03:03:23;;;;;;;18.98;15.65;;;3.70;99.90;;;;;;5093975;28;20256;-41
2021/04/13 03:05:57;;;;;;;19.75;16.88;;;3.70;99.90;;;;;;5093920;28;20206;-40
2021/04/13 03:08:26;;;;;;;17.33;15.52;;;3.60;99.90;;;;;;5093456;28;20309;-40
2021/04/13 03:10:55;;;;;;;19.63;16.63;;;3.60;99.90;;;;;;5093406;28;20744;-40
2021/04/13 03:13:27;;;;;;;19.10;17.08;;;3.60;99.90;;;;;;5093788;28;20248;-40
2021/04/13 03:15:57;;;;;;;17.67;15.88;;;3.60;99.90;;;;;;5094111;28;20314;-40
2021/04/13 03:18:27;;;;;;;19.55;15.52;;;3.50;99.90;;;;;;5093780;28;20260;-40
2021/04/13 03:21:00;;;;;;;18.27;15.18;;;3.50;99.90;;;;;;5093842;28;20743;-41
2021/04/13 03:23:30;;;;;;;19.48;16.52;;;3.50;99.90;;;;;;5093803;28;20388;-40
2021/04/13 03:26:02;;;;;;;17.58;15.77;;;3.50;99.90;;;;;;5093471;28;20234;-41
2021/04/13 03:28:33;;;;;;;20.90;17.42;;;3.50;99.90;;;;;;5093897;28;20214;-39
2021/04/13 03:31:02;;;;;;;18.45;16.13;;;3.50;99.90;;;;;;5093535;28;20245;-40
2021/04/13 03:33:31;;;;;;;18.00;16.13;;;3.50;99.90;;;;;;5093602;28;20585;-39
2021/04/13 03:36:06;;;;;;;17.67;15.57;;;3.50;99.90;;;;;;5093437;28;20328;-41
2021/04/13 03:38:35;;;;;;;17.23;15.32;;;3.50;99.90;;;;;;5092793;28;20216;-41
2021/04/13 03:41:02;;;;;;;17.02;15.27;;;3.40;99.90;;;;;;5093155;28;20234;-43
2021/04/13 03:43:31;;;;;;;17.60;15.38;;;3.40;99.90;;;;;;5070921;28;20644;-42
2021/04/13 03:46:03;;;;;;;18.70;16.67;;;3.30;99.90;;;;;;5072129;28;20225;-43
2021/04/13 03:48:32;;;;;;;17.85;15.73;;;3.20;99.90;;;;;;5063604;28;20306;-42
2021/04/13 03:51:04;;;;;;;19.23;15.50;;;3.20;99.90;;;;;;5071653;28;20215;-42
2021/04/13 03:53:35;;;;;;;21.83;16.83;;;3.10;99.90;;;;;;5072167;28;20295;-44
2021/04/13 03:56:06;;;;;;;17.17;15.30;;;3.10;99.90;;;;;;5072110;28;20257;-42
2021/04/13 03:58:40;;;;;;;18.48;15.60;;;3.10;99.90;;;;;;5071869;28;20254;-42
2021/04/13 04:01:09;;;;;;;18.85;15.68;;;3.10;99.90;;;;;;5071806;28;20299;-41
2021/04/13 04:03:40;;;;;;;18.42;15.23;;;3.00;99.90;;;;;;5064098;28;20684;-42
2021/04/13 04:06:08;;;;;;;18.35;16.55;;;3.00;99.90;;;;;;5071504;28;20242;-42
2021/04/13 04:08:40;;;;;;;18.17;16.23;;;3.00;99.90;;;;;;5071497;28;20243;-44
2021/04/13 04:11:08;;;;;;;16.90;15.10;;;3.10;99.90;;;;;;5072088;28;20208;-41
2021/04/13 04:13:37;;;;;;;17.40;14.73;;;3.10;99.90;;;;;;5072046;28;20676;-42
2021/04/13 04:16:09;;;;;;;19.25;16.70;;;3.10;99.90;;;;;;5072020;28;20238;-41
2021/04/13 04:18:40;;;;;;;18.67;16.63;;;3.00;99.90;;;;;;5072055;28;20290;-41
2021/04/13 04:21:31;;;;;;;19.15;15.75;;;3.00;99.90;;;;;;5071590;28;20322;-40
2021/04/13 04:24:02;;;;;;;18.52;15.77;;;3.00;99.90;;;;;;5072061;28;20260;-41
2021/04/13 04:26:33;;;;;;;18.17;16.27;;;3.00;99.90;;;;;;5071823;28;20329;-41
2021/04/13 04:29:16;;;;;;;19.30;16.02;;;3.10;99.90;;;;;;5054212;28;20222;-39
2021/04/13 04:31:44;;;;;;;18.83;15.27;;;3.10;99.90;;;;;;5052112;28;20240;-39
2021/04/13 04:34:39;;;;;;;17.20;15.45;;;3.10;99.90;;;;;;5052314;28;20634;-39
2021/04/13 04:37:19;;;;;;;17.70;16.00;;;3.10;99.90;;;;;;5052131;28;20647;-39
2021/04/13 04:39:47;;;;;;;17.95;15.18;;;3.10;99.90;;;;;;5052098;28;20275;-38
2021/04/13 04:42:36;;;;;;;19.40;15.13;;;3.10;99.90;;;;;;5052182;28;20266;-39
2021/04/13 04:45:12;;;;;;;16.85;14.27;;;3.10;99.90;;;;;;5052069;28;20686;-40
2021/04/13 04:47:40;;;;;;;16.65;14.50;;;3.10;99.90;;;;;;5052004;28;20295;-39
2021/04/13 04:50:09;;;;;;;16.75;15.00;;;3.10;99.90;;;;;;5052080;28;20232;-40
2021/04/13 04:52:37;;;;;;;15.10;13.45;;;3.20;99.90;;;;;;5052061;28;20208;-40
2021/04/13 04:55:05;;;;;;;18.30;16.30;;;3.20;99.90;;;;;;5051908;28;20278;-39
2021/04/13 04:57:32;;;;;;;17.20;15.40;;;3.20;99.90;;;;;;5051830;28;20214;-40
2021/04/13 04:59:59;;;;;;;16.30;14.60;;;3.20;99.90;;;;;;5052076;28;20291;-40
2021/04/13 05:02:26;;;;;;;20.80;14.73;;;3.20;99.90;;;;;;5051976;28;20235;-40
2021/04/13 05:04:53;;;;;;;16.45;13.98;;;3.20;99.90;;;;;;5052309;28;20308;-40
2021/04/13 05:07:20;;;;;;;17.92;14.45;;;3.30;99.90;;;;;;5052037;28;20439;-39
2021/04/13 05:09:48;;;;;;;17.55;14.93;;;3.30;99.90;;;;;;5051561;28;20644;-40
2021/04/13 05:12:15;;;;;;;16.25;14.55;;;3.30;99.90;;;;;;5051467;28;20266;-40
2021/04/13 05:14:42;;;;;;;20.42;15.27;;;3.40;99.90;;;;;;5052601;28;20295;-40
2021/04/13 05:17:09;;;;;;;18.58;15.50;;;3.50;99.90;;;;;;5051574;28;20286;-40
2021/04/13 05:19:36;;;;;;;17.15;14.80;;;3.50;99.90;;;;;;5051765;28;20310;-40
2021/04/13 05:22:03;;;;;;;15.45;13.85;;;3.50;99.90;;;;;;5052003;28;20255;-40
2021/04/13 05:24:30;;;;;;;15.95;14.20;;;3.60;99.90;;;;;;5051388;28;20250;-40
2021/04/13 05:26:58;;;;;;;14.25;12.45;;;3.60;99.90;;;;;;5051321;28;20294;-40
2021/04/13 05:29:25;;;;;;;15.82;14.23;;;3.60;99.90;;;;;;5051638;28;20623;-40
2021/04/13 05:31:51;;;;;;;15.13;13.13;;;3.70;99.90;;;;;;5051262;28;20587;-41
2021/04/13 05:34:19;;;;;;;18.15;13.32;;;3.70;99.90;;;;;;5055378;28;20212;-41
2021/04/13 05:36:51;;;;;;;18.55;13.48;;;3.70;99.90;;;;;;5054954;28;20698;-40
2021/04/13 05:39:20;;;;;;;14.63;13.13;;;3.80;99.90;;;;;;5054940;28;20215;-40
2021/04/13 05:41:47;;;;;;;16.33;13.77;;;3.80;99.90;;;;;;5055168;28;20240;-40
2021/04/13 05:44:15;;;;;;;14.30;12.75;;;3.80;99.90;;;;;;5055288;28;20295;-40
2021/04/13 05:46:42;;;;;;;18.95;13.52;;;3.90;99.90;;;;;;5055140;28;20349;-40
2021/04/13 05:49:11;;;;;;;15.15;12.90;;;3.90;99.90;;;;;;5055164;28;20341;-41
2021/04/13 05:51:38;;;;;;;15.13;12.60;;;3.90;99.90;;;;;;5054884;28;20208;-41
2021/04/13 05:54:06;;;;;;;15.48;13.52;;;3.90;99.90;;;;;;5054741;28;20755;-40
2021/04/13 05:56:36;;;;;;;15.00;12.45;;;3.90;99.90;;;;;;5054845;28;20254;-40
2021/04/13 05:59:06;;;;;;;13.70;12.30;;;3.90;99.90;;;;;;5054994;28;20204;-40
2021/04/13 06:01:34;;;;;;;14.48;12.23;;;4.00;99.90;;;;;;5054848;28;20316;-40
2021/04/13 06:04:02;;;;;;;14.07;12.40;;;4.00;99.90;;;;;;5054822;28;20364;-40
2021/04/13 06:06:30;;;;;;;16.20;13.52;;;4.00;99.90;;;;;;5054480;28;20212;-40
2021/04/13 06:08:58;;;;;;;16.77;14.68;;;4.00;99.90;;;;;;5054722;28;20235;-40
2021/04/13 06:11:27;;;;;;;14.43;12.88;;;4.00;99.90;;;;;;5054403;28;20648;-40
2021/04/13 06:13:56;;;;;;;15.13;12.82;;;4.00;99.90;;;;;;5054456;28;20247;-40
2021/04/13 06:16:26;;;;;;;14.10;12.63;;;4.10;99.90;;;;;;5054393;28;20307;-40
2021/04/13 06:18:54;;;;;;;17.13;12.52;;;4.10;99.90;;;;;;5054294;28;20258;-40
2021/04/13 06:21:21;;;;;;;13.77;12.20;;;4.20;99.90;;;;;;5054403;28;20227;-38
2021/04/13 06:23:48;;;;;;;14.32;12.75;;;4.20;99.90;;;;;;5054258;28;20208;-39
2021/04/13 06:26:15;;;;;;;15.63;13.20;;;4.20;99.90;;;;;;5054337;28;20330;-38
2021/04/13 06:28:42;;;;;;;17.02;14.15;;;4.20;99.90;;;;;;5054257;28;20203;-39
2021/04/13 06:31:09;;;;;;;15.10;13.13;;;4.20;99.90;;;;;;5054213;28;20204;-40
2021/04/13 06:33:36;;;;;;;19.30;14.50;;;4.20;99.90;;;;;;5054030;28;20307;-39
2021/04/13 06:36:06;;;;;;;14.65;13.13;;;4.30;99.90;;;;;;5054117;28;20208;-39
2021/04/13 06:38:39;;;;;;;15.57;13.32;;;4.40;99.90;;;;;;5054263;28;20239;-39
2021/04/13 06:41:35;;;;;;;15.02;13.38;;;4.40;99.90;;;;;;5054057;28;20227;-40
2021/04/13 06:44:35;;;;;;;13.57;12.18;;;4.50;99.90;;;;;;5049393;28;20208;-38
2021/04/13 06:47:12;;;;;;;15.50;12.65;;;4.70;99.90;;;;;;5051751;28;20208;-39
2021/04/13 06:49:59;;;;;;;14.25;12.75;;;4.80;99.90;;;;;;5053755;28;20258;-39
2021/04/13 06:52:37;;;;;;;14.23;12.82;;;4.90;99.90;;;;;;5054064;28;20287;-38
2021/04/13 06:55:14;;;;;;;14.60;12.32;;;4.90;99.90;;;;;;5054087;28;20208;-38
2021/04/13 06:58:04;;;;;;;13.68;12.27;;;4.80;99.90;;;;;;5053546;28;20659;-38
2021/04/13 07:00:54;;;;;;;15.35;12.68;;;4.80;99.90;;;;;;5053423;28;20647;-39
2021/04/13 07:03:31;;;;;;;14.90;12.55;;;4.80;99.90;;;;;;5053531;28;20702;-39
2021/04/13 07:06:10;;;;;;;13.38;11.85;;;4.90;99.90;;;;;;5053736;28;20237;-39
2021/04/13 07:08:42;;;;;;;11.95;10.82;;;5.10;99.90;;;;;;5053671;28;20231;-39
2021/04/13 07:11:18;;;;;;;12.00;10.80;;;5.10;99.90;;;;;;5053499;28;20295;-40
2021/04/13 07:13:51;;;;;;;12.23;10.77;;;5.20;99.90;;;;;;5054058;28;20246;-39
2021/04/13 07:16:23;;;;;;;14.18;11.35;;;5.40;99.90;;;;;;5053346;28;20212;-39
2021/04/13 07:19:00;;;;;;;11.65;10.45;;;5.60;99.90;;;;;;5053326;28;20239;-37
2021/04/13 07:21:35;;;;;;;11.45;9.73;;;5.60;99.90;;;;;;5053133;28;20652;-37
2021/04/13 07:24:11;;;;;;;10.60;9.60;;;5.60;99.90;;;;;;5053254;28;20207;-38
2021/04/13 07:26:42;;;;;;;11.80;10.20;;;5.60;99.90;;;;;;5052986;28;20250;-38
2021/04/13 07:29:17;;;;;;;15.38;10.52;;;5.70;99.90;;;;;;5053046;28;20219;-37
2021/04/13 07:31:52;;;;;;;11.63;10.52;;;5.80;99.90;;;;;;5052802;28;20667;-38
2021/04/13 07:34:21;;;;;;;10.80;9.75;;;5.90;99.90;;;;;;5053163;28;20371;-38
2021/04/13 07:36:56;;;;;;;10.50;9.50;;;5.90;99.90;;;;;;5052715;28;20735;-38
2021/04/13 07:39:26;;;;;;;11.57;9.98;;;6.10;99.90;;;;;;5052553;28;20207;-39
2021/04/13 07:42:00;;;;;;;18.00;10.80;;;6.00;99.80;;;;;;5052685;28;20658;-39
2021/04/13 07:44:52;;;;;;;13.75;10.18;;;5.90;99.90;;;;;;5052983;28;20753;-39
2021/04/13 07:47:42;;;;;;;12.13;10.25;;;6.00;99.90;;;;;;5053119;28;20314;-39
2021/04/13 07:50:09;;;;;;;11.88;10.70;;;6.00;99.90;;;;;;5052650;28;20287;-39
2021/04/13 07:52:41;;;;;;;11.30;10.20;;;6.00;99.80;;;;;;5052531;28;20298;-39
2021/04/13 07:55:19;;;;;;;11.85;10.13;;;6.00;99.80;;;;;;5051802;28;20208;-39
2021/04/13 07:57:53;;;;;;;11.60;9.48;;;6.10;99.70;;;;;;5052352;28;20230;-39
2021/04/13 08:00:25;;;;;;;10.35;9.35;;;6.20;99.70;;;;;;5052176;28;20212;-39
2021/04/13 08:03:03;;;;;;;9.73;8.80;;;6.30;99.50;;;;;;5052196;28;20218;-39
2021/04/13 08:05:42;;;;;;;10.27;8.82;;;6.50;99.20;;;;;;5052258;28;20230;-38
2021/04/13 08:08:21;;;;;;;10.95;9.80;;;6.70;98.90;;;;;;5053387;28;20291;-39
2021/04/13 08:10:49;;;;;;;10.60;9.57;;;7.00;98.50;;;;;;5052258;28;20674;-39
2021/04/13 08:13:29;;;;;;;9.50;8.60;;;7.10;98.30;;;;;;5051885;28;20304;-39
2021/04/13 08:15:56;;;;;;;9.52;8.63;;;7.20;98.00;;;;;;5051740;28;20291;-39
2021/04/13 08:18:48;;;;;;;9.18;8.27;;;7.20;98.00;;;;;;5052030;28;20297;-39
2021/04/13 08:21:20;;;;;;;7.90;7.10;;;7.30;97.80;;;;;;5037574;28;20636;-39
2021/04/13 08:23:48;;;;;;;7.45;6.82;;;7.50;97.20;;;;;;5051955;28;20577;-39
2021/04/13 08:26:40;;;;;;;7.75;7.15;;;7.60;96.70;;;;;;5051709;28;20263;-39
2021/04/13 08:29:17;;;;;;;8.75;7.95;;;7.60;96.40;;;;;;5051750;28;20300;-40
2021/04/13 08:34:57;;;;;;;6.93;6.15;;;8.00;95.90;;;;;;5051952;28;20207;-39
2021/04/13 08:37:31;;;;;;;8.25;7.38;;;8.00;94.80;;;;;;5051815;28;20290;-39
2021/04/13 08:40:18;;;;;;;8.77;7.93;;;7.80;94.60;;;;;;5051691;28;20294;-39
2021/04/13 08:42:54;;;;;;;8.85;7.68;;;7.80;95.00;;;;;;5051529;28;20764;-39
2021/04/13 08:45:30;;;;;;;7.40;6.80;;;8.00;95.20;;;;;;5051651;28;20574;-39
2021/04/13 08:48:01;;;;;;;9.45;8.35;;;8.30;94.70;;;;;;5051493;28;20682;-39
2021/04/13 08:50:36;;;;;;;8.45;7.75;;;8.40;93.80;;;;;;5051580;28;20291;-39
2021/04/13 08:53:05;;;;;;;8.88;8.07;;;8.60;93.90;;;;;;5051712;28;20309;-39
2021/04/13 08:55:48;;;;;;;9.25;8.35;;;8.80;93.70;;;;;;5051723;28;20555;-39
2021/04/13 08:58:52;;;;;;;9.27;7.75;;;9.00;92.90;;;;;;5051495;28;20236;-40
2021/04/13 09:01:30;;;;;;;8.20;7.50;;;8.90;92.70;;;;;;5036143;28;20228;-39
2021/04/13 09:03:58;;;;;;;8.68;7.30;;;9.00;92.20;;;;;;5064183;28;20290;-40
2021/04/13 09:06:41;;;;;;;7.60;7.00;;;9.00;92.50;;;;;;5071577;28;20216;-40
2021/04/13 09:09:16;;;;;;;8.25;6.75;;;9.00;91.60;;;;;;5075177;28;20207;-40
2021/04/13 09:11:49;;;;;;;6.93;6.22;;;9.00;91.70;;;;;;5075613;28;20226;-39
2021/04/13 09:14:30;;;;;;;7.43;5.82;;;9.00;91.20;;;;;;5075785;28;20243;-40
2021/04/13 09:17:02;;;;;;;5.43;4.93;;;9.10;90.60;;;;;;5081879;28;20297;-39
2021/04/13 09:19:33;;;;;;;7.68;6.88;;;9.30;90.10;;;;;;5095686;28;20287;-39
2021/04/13 09:22:19;;;;;;;6.88;6.28;;;9.60;86.80;;;;;;5095613;28;20739;-39
2021/04/13 09:25:13;;;;;;;6.30;5.70;;;9.90;85.90;;;;;;5096005;28;20316;-39
2021/04/13 09:27:43;;;;;;;6.00;5.50;;;10.10;84.70;;;;;;5095457;28;20279;-42
2021/04/13 09:30:27;;;;;;;7.28;6.63;;;10.00;85.10;;;;;;5095535;28;20238;-39
2021/04/13 09:33:07;;;;;;;8.52;7.68;;;9.90;84.50;;;;;;5095747;28;20289;-38
2021/04/13 09:35:52;;;;;;;8.60;7.80;;;9.50;84.60;;;;;;5095629;28;20202;-38
2021/04/13 09:38:46;;;;;;;8.23;7.32;;;8.90;86.50;;;;;;5095355;28;20245;-38
2021/04/13 09:41:19;;;;;;;7.35;6.65;;;8.40;86.30;;;;;;5095347;28;20258;-38
2021/04/13 09:43:58;;;;;;;8.10;7.30;;;8.10;88.00;;;;;;5095363;28;20310;-40
2021/04/13 09:46:41;;;;;;;7.32;6.65;;;7.90;88.70;;;;;;5095188;28;20606;-40
2021/04/13 09:49:46;;;;;;;8.48;7.78;;;7.70;88.90;;;;;;5095013;28;20230;-38
2021/04/13 09:52:40;;;;;;;9.18;8.05;;;7.80;87.60;;;;;;5083139;28;20242;-38
2021/04/13 09:55:24;;;;;;;7.97;7.20;;;7.80;87.80;;;;;;5095055;28;20280;-39
2021/04/13 09:58:14;;;;;;;6.20;5.70;;;8.00;86.90;;;;;;5095075;28;20291;-39
2021/04/13 10:00:56;;;;;;;6.38;5.88;;;8.00;86.00;;;;;;5094846;28;20571;-39
2021/04/13 10:03:56;;;;;;;6.53;6.03;;;8.00;84.50;;;;;;5095037;28;20305;-39
2021/04/13 10:06:29;;;;;;;6.75;6.22;;;8.00;85.00;;;;;;5095124;28;20221;-39
2021/04/13 10:09:07;;;;;;;6.40;5.80;;;8.10;85.10;;;;;;5094989;28;20217;-39
2021/04/13 10:12:08;;;;;;;5.97;5.47;;;8.30;83.40;;;;;;5094943;28;20206;-39
2021/04/13 10:15:22;;;;;;;4.60;4.30;;;8.60;80.40;;;;;;5094754;28;20210;-39
2021/04/13 10:18:07;;;;;;;5.93;5.43;;;8.80;79.20;;;;;;5094289;28;20203;-38
2021/04/13 10:20:45;;;;;;;6.00;5.22;;;9.20;77.60;;;;;;5094497;28;20203;-38
2021/04/13 10:23:32;;;;;;;6.32;5.72;;;9.40;76.30;;;;;;5094507;28;20276;-39
2021/04/13 10:26:47;;;;;;;6.32;5.72;;;9.50;74.60;;;;;;5094401;28;20265;-39
2021/04/13 10:29:36;;;;;;;6.75;6.15;;;9.50;74.70;;;;;;5094574;28;20298;-40
2021/04/13 10:32:28;;;;;;;6.55;5.95;;;9.40;75.80;;;;;;5094940;28;20207;-39
2021/04/13 10:35:22;;;;;;;7.03;6.43;;;9.30;76.90;;;;;;5094266;28;20206;-38
2021/04/13 10:38:18;;;;;;;6.40;5.90;;;9.10;77.70;;;;;;5094288;28;20668;-38
2021/04/13 10:41:30;;;;;;;7.35;6.50;;;8.70;80.40;;;;;;5094242;28;20290;-38
2021/04/13 10:44:37;;;;;;;6.65;5.97;;;8.10;83.20;;;;;;5068715;28;20291;-38
2021/04/13 10:47:24;;;;;;;7.28;6.68;;;7.80;83.20;;;;;;5094301;28;20238;-38
2021/04/13 10:50:10;;;;;;;7.45;6.85;;;7.60;84.40;;;;;;5094010;28;20206;-38
2021/04/13 10:53:16;;;;;;;6.15;5.65;;;7.50;84.80;;;;;;5094018;28;20344;-38
2021/04/13 10:56:11;;;;;;;6.88;5.85;;;7.60;83.60;;;;;;5094017;28;20673;-38
2021/04/13 10:59:03;;;;;;;8.02;6.75;;;7.70;83.00;;;;;;5094023;28;20293;-38
2021/04/13 11:02:13;;;;;;;7.50;6.80;;;7.90;83.10;;;;;;5093869;28;20402;-38
2021/04/13 11:05:21;;;;;;;7.90;7.13;;;8.10;83.10;;;;;;5094069;28;20271;-39
2021/04/13 11:08:27;;;;;;;7.63;7.03;;;8.60;82.30;;;;;;5076800;28;20221;-39
2021/04/13 11:11:26;;;;;;;7.43;6.72;;;9.30;80.80;;;;;;5093971;28;20630;-39
2021/04/13 11:14:23;;;;;;;7.35;6.68;;;9.80;79.40;;;;;;5093690;28;20306;-39
2021/04/13 11:17:36;;;;;;;6.30;5.80;;;10.40;78.50;;;;;;5093569;28;20207;-39
2021/04/13 11:20:22;;;;;;;6.10;5.57;;;10.50;78.80;;;;;;5093537;28;20668;-39
2021/04/13 11:23:31;;;;;;;5.80;5.30;;;10.30;79.30;;;;;;5093374;28;20291;-39
2021/04/13 11:26:44;;;;;;;4.75;4.35;;;9.80;78.60;;;;;;5064639;28;20321;-39
2021/04/13 11:29:59;;;;;;;5.32;4.82;;;9.30;80.10;;;;;;5093233;28;20207;-39
2021/04/13 11:32:59;;;;;;;5.45;4.95;;;9.00;82.60;;;;;;5093341;28;20664;-39
2021/04/13 11:35:33;;;;;;;6.05;5.40;;;9.00;82.60;;;;;;5092892;28;20297;-39
2021/04/13 11:38:30;;;;;;;6.15;5.65;;;9.20;82.50;;;;;;5093203;28;20233;-39
2021/04/13 11:41:20;;;;;;;7.03;6.40;;;9.50;81.40;;;;;;5092908;28;20241;-39
2021/04/13 11:43:51;;;;;;;7.85;5.95;;;9.70;80.00;;;;;;5092839;28;20301;-39
2021/04/13 11:46:23;;;;;;;5.50;5.00;;;9.90;79.40;;;;;;5093082;28;20218;-39
2021/04/13 11:49:00;;;;;;;6.90;6.32;;;9.80;78.30;;;;;;5093957;28;20238;-40
2021/04/13 11:51:37;;;;;;;6.38;5.68;;;9.80;77.20;;;;;;5093169;28;20289;-40
2021/04/13 11:54:38;;;;;;;7.15;6.65;;;9.80;77.00;;;;;;5092823;28;20301;-40
2021/04/13 11:57:12;;;;;;;7.07;6.38;;;9.90;75.70;;;;;;5092331;28;20677;-39
2021/04/13 11:59:40;;;;;;;8.15;7.40;;;10.00;75.80;;;;;;5092455;28;20293;-40
2021/04/13 12:02:31;;;;;;;7.60;6.82;;;10.20;75.10;;;;;;5092331;28;20219;-40
2021/04/13 12:04:59;;;;;;;6.97;6.38;;;10.30;74.40;;;;;;5072797;28;20222;-40
2021/04/13 12:07:50;;;;;;;6.60;6.10;;;10.40;75.60;;;;;;5092859;28;20264;-40
2021/04/13 12:10:54;;;;;;;7.57;6.88;;;10.70;75.40;;;;;;5092703;28;20622;-40
2021/04/13 12:13:51;;;;;;;7.00;6.43;;;10.90;75.00;;;;;;5092781;28;20222;-40
2021/04/13 12:16:20;;;;;;;35.38;9.45;;;11.00;73.90;;;;;;5010469;28;20205;-40
2021/04/13 12:19:12;;;;;;;8.70;8.00;;;11.10;74.40;;;;;;5075393;28;20707;-40
2021/04/13 12:21:55;;;;;;;6.60;5.97;;;11.10;72.00;;;;;;5092688;28;20279;-40
2021/04/13 12:24:49;;;;;;;8.68;6.13;;;11.00;73.00;;;;;;5092321;28;20217;-40
2021/04/13 12:28:00;;;;;;;6.57;5.97;;;10.90;71.90;;;;;;5092307;28;20295;-40
2021/04/13 12:30:50;;;;;;;8.90;7.10;;;10.60;72.70;;;;;;5091999;28;20253;-40
2021/04/13 12:33:49;;;;;;;7.80;7.15;;;10.50;73.60;;;;;;5093352;28;20254;-40
2021/04/13 12:36:46;;;;;;;8.18;7.47;;;10.10;74.70;;;;;;5092246;28;20218;-40
2021/04/13 12:39:45;;;;;;;7.30;6.70;;;9.70;76.10;;;;;;5091811;28;20275;-40
2021/04/13 12:42:38;;;;;;;8.32;7.53;;;9.60;77.10;;;;;;5092773;28;20256;-40
2021/04/13 12:45:38;;;;;;;8.05;7.35;;;9.40;79.00;;;;;;5091581;28;20632;-40
2021/04/13 12:48:13;;;;;;;7.80;7.10;;;9.10;80.60;;;;;;5092420;28;20206;-40
2021/04/13 12:50:43;;;;;;;8.82;8.05;;;8.80;81.10;;;;;;5091513;28;20283;-40
2021/04/13 12:53:14;;;;;;;7.78;7.05;;;8.60;82.20;;;;;;5092211;28;20244;-40
2021/04/13 12:55:42;;;;;;;7.63;7.03;;;8.40;83.60;;;;;;5092145;28;20254;-39
2021/04/13 12:58:22;;;;;;;7.18;6.47;;;8.20;84.60;;;;;;5090083;28;20687;-40
2021/04/13 13:00:50;;;;;;;6.82;6.22;;;8.10;84.90;;;;;;5090161;28;20211;-40
2021/04/13 13:03:20;;;;;;;8.20;7.47;;;8.30;84.70;;;;;;5090669;28;20254;-40
2021/04/13 13:05:49;;;;;;;7.50;6.80;;;8.40;83.80;;;;;;5090870;28;20250;-39
2021/04/13 13:08:20;;;;;;;8.88;8.07;;;8.60;83.80;;;;;;5091770;28;20304;-40
2021/04/13 13:10:51;;;;;;;8.02;6.82;;;8.80;83.60;;;;;;5091760;28;20679;-39
2021/04/13 13:13:21;;;;;;;6.68;6.07;;;9.10;81.90;;;;;;5090962;28;20198;-39
2021/04/13 13:15:49;;;;;;;7.50;6.90;;;9.30;81.00;;;;;;5091512;28;20670;-39
2021/04/13 13:18:22;;;;;;;11.68;9.23;;;9.50;80.50;;;;;;5092082;28;20210;-40
2021/04/13 13:20:57;;;;;;;7.20;6.57;;;9.50;78.10;;;;;;5091355;28;20256;-40
2021/04/13 13:23:29;;;;;;;6.30;5.70;;;9.50;78.50;;;;;;5091076;28;20709;-41
2021/04/13 13:25:57;;;;;;;6.72;6.22;;;9.60;77.40;;;;;;5091693;28;20242;-41
2021/04/13 13:28:25;;;;;;;5.88;5.45;;;9.50;76.80;;;;;;5091861;28;20241;-40
2021/04/13 13:30:53;;;;;;;5.53;5.03;;;9.50;76.70;;;;;;5091269;28;20218;-40
2021/04/13 13:33:21;;;;;;;6.22;5.45;;;9.60;75.60;;;;;;5092815;28;20517;-40
2021/04/13 13:35:49;;;;;;;6.65;5.38;;;9.70;74.50;;;;;;5090203;28;20364;-40